Time;durP1;ratioP1;P1;durP2;ratioP2;P2;SDS_P1;SDS_P2;PMS_P1;PMS_P2;Temp;Humidity;BMP_temperature;BMP_pressure;BME280_temperature;BME280_humidity;BME280_pressure;Samples;Min_cycle;Max_cycle;Signal;HPM_P1;HPM_P2
2021/06/13 00:00:01;;;;;;;;;;;23.60;75.90;23.60;100067.00;;;;348037;27;90891;-89
2021/06/13 00:00:15;;;;;;;;;;;23.70;75.90;23.60;100074.00;;;;345922;28;83405;-89
2021/06/13 00:00:27;;;;;;;;;;;23.60;75.90;23.60;100076.00;;;;344071;28;90667;-89
2021/06/13 00:00:39;;;;;;;;;;;23.60;76.50;23.60;100067.00;;;;347375;28;83365;-89
2021/06/13 00:00:51;;;;;;;;;;;23.60;75.90;23.60;100070.00;;;;345322;28;92531;-89
2021/06/13 00:01:03;;;;;;;;;;;23.60;76.00;23.60;100061.00;;;;344569;28;82543;-89
2021/06/13 00:01:15;;;;;;;;;;;23.60;75.90;23.60;100076.00;;;;349729;27;90899;-89
2021/06/13 00:01:27;;;;;;;;;;;23.60;75.90;23.60;100077.00;;;;347660;27;83477;-89
2021/06/13 00:01:39;;;;;;;;;;;23.60;76.00;23.60;100064.00;;;;346955;27;91515;-91
2021/06/13 00:01:50;;;;;;;;;;;23.60;76.10;23.60;100067.00;;;;348716;27;83452;-90
2021/06/13 00:02:04;;;;;;;;;;;23.60;76.00;23.60;100068.00;;;;346834;28;91547;-89
2021/06/13 00:02:16;;;;;;;;;;;23.60;76.10;23.60;100057.00;;;;344462;28;83449;-91
2021/06/13 00:02:28;;;;;;;;;;;23.60;76.10;23.70;100070.00;;;;347293;27;91851;-89
2021/06/13 00:02:42;;;;;;;;;;;23.60;76.00;23.70;100066.00;;;;348787;27;83308;-90
2021/06/13 00:02:54;;;;;;;;;;;23.60;76.10;23.70;100063.00;;;;345353;28;92502;-89
2021/06/13 00:03:06;;;;;;;;;;;23.60;76.10;23.70;100076.00;;;;345948;28;82483;-89
2021/06/13 00:03:18;;;;;;;;;;;23.60;76.00;23.70;100074.00;;;;348253;27;87981;-90
2021/06/13 00:03:30;;;;;;;;;;;23.60;76.10;23.70;100059.00;;;;348852;27;83438;-89
2021/06/13 00:03:41;;;;;;;;;;;23.60;76.10;23.70;100062.00;;;;345617;28;87765;-89
2021/06/13 00:03:53;;;;;;;;;;;23.60;76.10;23.70;100064.00;;;;345961;28;83515;-89
2021/06/13 00:04:05;;;;;;;;;;;23.60;76.00;23.70;100062.00;;;;344129;28;92248;-89
2021/06/13 00:04:18;;;;;;;;;;;23.60;75.90;23.70;100062.00;;;;348637;27;83289;-89
2021/06/13 00:04:29;;;;;;;;;;;23.60;75.90;23.70;100066.00;;;;348936;27;90843;-89
2021/06/13 00:04:41;;;;;;;;;;;23.60;76.00;23.70;100058.00;;;;344954;28;82567;-89
2021/06/13 00:04:53;;;;;;;;;;;23.60;75.90;23.70;100064.00;;;;344202;28;89047;-90
2021/06/13 00:05:08;;;;;;;;;;;23.60;75.80;23.70;100068.00;;;;347282;28;83458;-89
2021/06/13 00:05:20;;;;;;;;;;;23.60;75.80;23.70;100067.00;;;;344006;28;91234;-89
2021/06/13 00:05:32;;;;;;;;;;;23.60;76.00;23.70;100067.00;;;;345387;28;83608;-88
2021/06/13 00:05:43;;;;;;;;;;;23.60;76.00;23.70;100066.00;;;;348381;27;87946;-89
2021/06/13 00:05:55;;;;;;;;;;;23.60;76.10;23.60;100060.00;;;;347375;28;83539;-90
2021/06/13 00:06:07;;;;;;;;;;;23.60;76.10;23.60;100061.00;;;;346979;28;90433;-89
2021/06/13 00:06:19;;;;;;;;;;;23.60;76.00;23.60;100065.00;;;;348745;27;83156;-89
2021/06/13 00:06:31;;;;;;;;;;;23.60;76.00;23.60;100060.00;;;;344259;28;91240;-89
2021/06/13 00:06:42;;;;;;;;;;;23.60;76.00;23.60;100065.00;;;;347228;28;83504;-90
2021/06/13 00:06:54;;;;;;;;;;;23.60;76.00;23.60;100060.00;;;;346887;28;92398;-90
2021/06/13 00:07:06;;;;;;;;;;;23.60;76.10;23.60;100058.00;;;;347337;28;83381;-89
2021/06/13 00:07:18;;;;;;;;;;;23.60;76.10;23.60;100061.00;;;;347008;28;88295;-89
2021/06/13 00:07:32;;;;;;;;;;;23.60;76.10;23.60;100063.00;;;;345447;28;83668;-89
2021/06/13 00:07:44;;;;;;;;;;;23.60;76.10;23.60;100063.00;;;;345585;28;91383;-90
2021/06/13 00:07:55;;;;;;;;;;;23.60;76.70;23.60;100065.00;;;;346163;28;82592;-89
2021/06/13 00:08:07;;;;;;;;;;;23.60;76.10;23.70;100066.00;;;;345494;28;90644;-89
2021/06/13 00:08:19;;;;;;;;;;;23.60;76.10;23.60;100063.00;;;;350183;27;82545;-89
2021/06/13 00:08:31;;;;;;;;;;;23.60;76.10;23.60;100060.00;;;;347801;27;90301;-89
2021/06/13 00:08:42;;;;;;;;;;;23.60;76.00;23.70;100066.00;;;;348897;27;83472;-89
2021/06/13 00:08:54;;;;;;;;;;;23.60;76.00;23.60;100070.00;;;;348453;27;91076;-90
2021/06/13 00:09:06;;;;;;;;;;;23.60;76.00;23.60;100060.00;;;;350379;27;83909;-90
2021/06/13 00:09:19;;;;;;;;;;;23.60;76.10;23.50;100063.00;;;;348476;27;91341;-89
2021/06/13 00:09:31;;;;;;;;;;;23.60;76.10;23.50;100075.00;;;;347574;28;82495;-89
2021/06/13 00:09:43;;;;;;;;;;;23.50;76.00;23.60;100061.00;;;;348530;27;92429;-89
2021/06/13 00:09:54;;;;;;;;;;;23.50;76.00;23.50;100061.00;;;;347540;28;82488;-90
2021/06/13 00:10:07;;;;;;;;;;;23.60;76.10;23.50;100061.00;;;;344449;28;89978;-89
2021/06/13 00:10:20;;;;;;;;;;;23.60;76.10;23.60;100062.00;;;;347513;28;83394;-89
2021/06/13 00:10:31;;;;;;;;;;;23.60;76.10;23.50;100058.00;;;;345620;28;90436;-89
2021/06/13 00:10:43;;;;;;;;;;;23.60;76.10;23.60;100059.00;;;;344548;28;83567;-89
2021/06/13 00:10:55;;;;;;;;;;;23.60;76.10;23.60;100061.00;;;;348447;27;91488;-90
2021/06/13 00:11:08;;;;;;;;;;;23.60;76.10;23.60;100059.00;;;;347606;28;83384;-90
2021/06/13 00:11:21;;;;;;;;;;;23.50;76.10;23.60;100063.00;;;;344376;28;91604;-89
2021/06/13 00:11:33;;;;;;;;;;;23.60;76.10;23.60;100066.00;;;;347628;28;82411;-89
2021/06/13 00:11:45;;;;;;;;;;;23.60;76.00;23.60;100059.00;;;;345787;28;91825;-90
2021/06/13 00:11:56;;;;;;;;;;;23.60;76.10;23.60;100056.00;;;;343365;28;83477;-89
2021/06/13 00:12:09;;;;;;;;;;;23.60;76.10;23.60;100060.00;;;;345717;28;90709;-90
2021/06/13 00:12:21;;;;;;;;;;;23.60;76.10;23.60;100060.00;;;;346191;28;82461;-89
2021/06/13 00:12:33;;;;;;;;;;;23.50;76.20;23.60;100061.00;;;;347166;28;91476;-89
2021/06/13 00:12:45;;;;;;;;;;;23.60;76.20;23.60;100056.00;;;;346084;28;83490;-90
2021/06/13 00:12:57;;;;;;;;;;;23.60;76.10;23.60;100061.00;;;;344278;28;90312;-89
2021/06/13 00:13:11;;;;;;;;;;;23.50;76.00;23.60;100059.00;;;;346051;28;82511;-89
2021/06/13 00:13:24;;;;;;;;;;;23.60;76.10;23.50;100059.00;;;;346887;28;88148;-89
2021/06/13 00:13:35;;;;;;;;;;;23.50;76.10;23.50;100053.00;;;;346946;28;83499;-89
2021/06/13 00:13:49;;;;;;;;;;;23.60;76.10;23.60;100057.00;;;;345787;28;91294;-89
2021/06/13 00:14:01;;;;;;;;;;;23.50;76.00;23.50;100054.00;;;;347447;27;82665;-89
2021/06/13 00:14:13;;;;;;;;;;;23.50;76.00;23.60;100061.00;;;;347125;28;90489;-89
2021/06/13 00:14:25;;;;;;;;;;;23.50;76.00;23.60;100062.00;;;;347555;28;83469;-90
2021/06/13 00:14:37;;;;;;;;;;;23.50;76.10;23.60;100064.00;;;;345730;28;91517;-89
2021/06/13 00:14:49;;;;;;;;;;;23.50;76.00;23.60;100059.00;;;;346126;28;83502;-89
2021/06/13 00:15:00;;;;;;;;;;;23.60;76.20;23.50;100059.00;;;;348507;27;91396;-88
2021/06/13 00:15:16;;;;;;;;;;;23.50;76.00;23.50;100059.00;;;;348773;27;82582;-89
2021/06/13 00:15:27;;;;;;;;;;;23.50;76.00;23.50;100060.00;;;;344298;28;91858;-89
2021/06/13 00:15:39;;;;;;;;;;;23.60;76.10;23.40;100067.00;;;;346240;28;83319;-90
2021/06/13 00:15:51;;;;;;;;;;;23.50;76.10;23.50;100062.00;;;;348536;27;90589;-90
2021/06/13 00:16:04;;;;;;;;;;;23.50;76.10;23.50;100058.00;;;;347570;28;82618;-89
2021/06/13 00:16:17;;;;;;;;;;;23.50;76.30;23.50;100074.00;;;;345785;28;91678;-89
2021/06/13 00:16:29;;;;;;;;;;;23.50;76.20;23.50;100061.00;;;;345402;28;83455;-89
2021/06/13 00:16:41;;;;;;;;;;;23.50;76.20;23.50;100061.00;;;;347150;27;90393;-89
2021/06/13 00:16:53;;;;;;;;;;;23.50;76.30;23.40;100069.00;;;;347546;28;83553;-89
2021/06/13 00:17:05;;;;;;;;;;;23.50;76.30;23.40;100064.00;;;;344332;28;91498;-89
2021/06/13 00:17:17;;;;;;;;;;;23.50;76.30;23.40;100066.00;;;;346260;28;82497;-89
2021/06/13 00:17:29;;;;;;;;;;;23.50;76.30;23.50;100056.00;;;;347066;28;91434;-88
2021/06/13 00:17:41;;;;;;;;;;;23.50;76.30;23.50;100059.00;;;;344904;28;82445;-89
2021/06/13 00:17:53;;;;;;;;;;;23.50;76.30;23.50;100061.00;;;;347027;28;90689;-89
2021/06/13 00:18:05;;;;;;;;;;;23.50;76.40;23.50;100060.00;;;;349010;27;83557;-89
2021/06/13 00:18:17;;;;;;;;;;;23.50;76.40;23.50;100054.00;;;;345827;28;89980;-89
2021/06/13 00:18:30;;;;;;;;;;;23.50;76.30;23.60;100060.00;;;;348712;27;82480;-88
2021/06/13 00:18:41;;;;;;;;;;;23.50;76.20;23.60;100055.00;;;;348546;27;91689;-89
2021/06/13 00:18:53;;;;;;;;;;;23.50;76.20;23.60;100066.00;;;;346169;28;83485;-89
2021/06/13 00:19:05;;;;;;;;;;;23.50;76.40;23.60;100061.00;;;;345676;28;92459;-89
2021/06/13 00:19:17;;;;;;;;;;;23.50;76.60;23.40;100064.00;;;;346171;28;83403;-91
2021/06/13 00:19:29;;;;;;;;;;;23.50;76.50;23.40;100060.00;;;;347572;27;88717;-89
2021/06/13 00:19:41;;;;;;;;;;;23.50;76.40;23.50;100059.00;;;;346671;28;83369;-90
2021/06/13 00:19:52;;;;;;;;;;;23.50;76.30;23.50;100054.00;;;;347251;28;88042;-90
2021/06/13 00:20:16;;;;;;;;;;;23.50;76.30;23.50;100050.00;;;;346151;28;83402;-90
2021/06/13 00:20:29;;;;;;;;;;;23.50;76.40;23.50;100062.00;;;;346107;28;90578;-88
2021/06/13 00:20:41;;;;;;;;;;;23.50;76.50;23.50;100053.00;;;;347600;27;83592;-89
2021/06/13 00:20:53;;;;;;;;;;;23.50;76.30;23.50;100062.00;;;;345580;28;89226;-89
2021/06/13 00:21:05;;;;;;;;;;;23.50;76.40;23.50;100064.00;;;;344892;28;84114;-90
2021/06/13 00:21:17;;;;;;;;;;;23.50;76.70;23.50;100060.00;;;;347038;28;92373;-89
2021/06/13 00:21:28;;;;;;;;;;;23.50;76.70;23.40;100057.00;;;;346178;28;83460;-90
2021/06/13 00:21:41;;;;;;;;;;;23.40;76.60;23.40;100058.00;;;;348560;27;90413;-89
2021/06/13 00:21:52;;;;;;;;;;;23.50;76.70;23.40;100060.00;;;;346233;28;83342;-89
2021/06/13 00:22:04;;;;;;;;;;;23.50;76.60;23.50;100062.00;;;;345706;28;91429;-89
2021/06/13 00:22:16;;;;;;;;;;;23.40;76.40;23.50;100061.00;;;;350419;27;82546;-89
2021/06/13 00:22:28;;;;;;;;;;;23.50;76.50;23.50;100061.00;;;;347386;27;91593;-89
2021/06/13 00:22:41;;;;;;;;;;;23.40;76.50;23.50;100062.00;;;;345180;28;82556;-90
2021/06/13 00:22:53;;;;;;;;;;;23.50;76.70;23.50;100062.00;;;;347151;28;92274;-90
2021/06/13 00:23:06;;;;;;;;;;;23.50;76.60;23.50;100061.00;;;;346372;28;82436;-89
2021/06/13 00:23:18;;;;;;;;;;;23.40;76.40;23.50;100061.00;;;;345653;28;92686;-89
2021/06/13 00:23:30;;;;;;;;;;;23.40;76.40;23.50;100063.00;;;;343342;28;83603;-89
2021/06/13 00:24:01;;;;;;;;;;;23.50;76.50;23.40;100058.00;;;;343009;28;90072;-90
2021/06/13 00:24:13;;;;;;;;;;;23.50;76.60;23.40;100060.00;;;;346201;28;83425;-89
2021/06/13 00:24:25;;;;;;;;;;;23.40;76.60;23.40;100055.00;;;;344408;28;92434;-90
2021/06/13 00:24:37;;;;;;;;;;;23.40;76.50;23.40;100054.00;;;;345895;28;84020;-90
2021/06/13 00:24:48;;;;;;;;;;;23.40;76.50;23.50;100050.00;;;;345838;28;88093;-89
2021/06/13 00:25:00;;;;;;;;;;;23.50;76.50;23.40;100058.00;;;;343425;28;83453;-89
2021/06/13 00:25:12;;;;;;;;;;;23.40;76.40;23.30;100057.00;;;;344392;28;91155;-89
2021/06/13 00:25:24;;;;;;;;;;;23.40;76.80;23.40;100058.00;;;;345794;28;83437;-89
2021/06/13 00:25:36;;;;;;;;;;;23.40;76.60;23.40;100062.00;;;;346592;28;90133;-89
2021/06/13 00:25:48;;;;;;;;;;;23.40;76.70;23.40;100057.00;;;;343434;28;83870;-89
2021/06/13 00:26:00;;;;;;;;;;;23.40;76.70;23.30;100054.00;;;;346496;28;91706;-90
2021/06/13 00:26:11;;;;;;;;;;;23.40;76.90;23.40;100060.00;;;;347506;28;83615;-90
2021/06/13 00:26:23;;;;;;;;;;;23.40;76.80;23.30;100063.00;;;;344470;28;89083;-90
2021/06/13 00:26:35;;;;;;;;;;;23.40;76.80;23.40;100066.00;;;;347430;27;83445;-89
2021/06/13 00:26:47;;;;;;;;;;;23.40;76.60;23.40;100059.00;;;;347280;28;87786;-90
2021/06/13 00:26:59;;;;;;;;;;;23.40;76.90;23.40;100060.00;;;;346223;28;83392;-89
2021/06/13 00:27:10;;;;;;;;;;;23.40;76.90;23.40;100062.00;;;;345793;28;91466;-89
2021/06/13 00:27:22;;;;;;;;;;;23.40;76.90;23.50;100058.00;;;;346020;28;83443;-90
2021/06/13 00:27:34;;;;;;;;;;;23.40;76.80;23.50;100056.00;;;;344159;28;92783;-90
2021/06/13 00:27:46;;;;;;;;;;;23.40;76.70;23.40;100053.00;;;;344889;28;82503;-89
2021/06/13 00:27:57;;;;;;;;;;;23.40;76.70;23.40;100056.00;;;;348448;27;91501;-89
2021/06/13 00:28:10;;;;;;;;;;;23.40;76.60;23.40;100058.00;;;;348917;27;83414;-89
2021/06/13 00:28:22;;;;;;;;;;;23.40;76.60;23.50;100063.00;;;;345840;28;90700;-90
2021/06/13 00:28:34;;;;;;;;;;;23.40;76.60;23.40;100061.00;;;;346515;28;83448;-90
2021/06/13 00:28:46;;;;;;;;;;;23.40;76.80;23.40;100057.00;;;;345430;28;91439;-89
2021/06/13 00:28:58;;;;;;;;;;;23.40;76.80;23.50;100058.00;;;;347559;28;82451;-90
2021/06/13 00:29:10;;;;;;;;;;;23.40;76.70;23.50;100057.00;;;;345738;28;91117;-90
2021/06/13 00:29:22;;;;;;;;;;;23.40;76.80;23.50;100056.00;;;;344596;28;83507;-89
2021/06/13 00:29:33;;;;;;;;;;;23.40;76.80;23.40;100062.00;;;;343737;28;92510;-89
2021/06/13 00:29:45;;;;;;;;;;;23.40;76.70;23.40;100059.00;;;;344871;28;83872;-90
2021/06/13 00:29:57;;;;;;;;;;;23.40;76.80;23.40;100064.00;;;;344334;28;92128;-89
2021/06/13 00:30:10;;;;;;;;;;;23.40;76.90;23.50;100058.00;;;;346105;28;83499;-90
2021/06/13 00:30:23;;;;;;;;;;;23.40;76.90;23.40;100057.00;;;;345861;28;90642;-88
2021/06/13 00:30:35;;;;;;;;;;;23.40;77.00;23.40;100061.00;;;;347598;28;83405;-89
2021/06/13 00:30:47;;;;;;;;;;;23.40;77.00;23.40;100053.00;;;;345707;28;88676;-89
2021/06/13 00:30:59;;;;;;;;;;;23.40;77.00;23.40;100064.00;;;;348975;27;83422;-89
2021/06/13 00:31:11;;;;;;;;;;;23.40;77.00;23.40;100054.00;;;;345702;28;91333;-90
2021/06/13 00:31:23;;;;;;;;;;;23.40;77.00;23.40;100060.00;;;;346097;27;83255;-89
2021/06/13 00:31:35;;;;;;;;;;;23.30;76.90;23.50;100056.00;;;;348235;27;91745;-89
2021/06/13 00:31:49;;;;;;;;;;;23.40;77.00;23.50;100058.00;;;;344917;28;82313;-89
2021/06/13 00:32:01;;;;;;;;;;;23.40;77.00;23.40;100064.00;;;;346597;28;90853;-90
2021/06/13 00:32:13;;;;;;;;;;;23.40;77.10;23.40;100060.00;;;;349041;27;83423;-90
2021/06/13 00:32:24;;;;;;;;;;;23.40;77.00;23.50;100058.00;;;;348567;27;90541;-89
2021/06/13 00:32:37;;;;;;;;;;;23.40;77.00;23.40;100057.00;;;;346115;28;83331;-90
2021/06/13 00:32:49;;;;;;;;;;;23.40;77.00;23.40;100069.00;;;;344236;28;91394;-89
2021/06/13 00:33:00;;;;;;;;;;;23.40;77.00;23.40;100061.00;;;;346231;28;83318;-90
2021/06/13 00:33:13;;;;;;;;;;;23.40;77.00;23.40;100060.00;;;;348459;27;91226;-89
2021/06/13 00:33:25;;;;;;;;;;;23.40;77.00;23.40;100062.00;;;;348870;27;83417;-90
2021/06/13 00:33:37;;;;;;;;;;;23.40;77.00;23.40;100064.00;;;;345775;28;91467;-89
2021/06/13 00:33:50;;;;;;;;;;;23.40;77.00;23.40;100060.00;;;;344825;28;82503;-89
2021/06/13 00:34:03;;;;;;;;;;;23.40;76.90;23.40;100059.00;;;;342985;28;90538;-89
2021/06/13 00:34:15;;;;;;;;;;;23.40;77.30;23.40;100070.00;;;;344757;28;83565;-90
2021/06/13 00:34:27;;;;;;;;;;;23.30;76.90;23.40;100055.00;;;;345954;28;91999;-89
2021/06/13 00:34:38;;;;;;;;;;;23.40;77.00;23.30;100060.00;;;;345877;28;83537;-89
2021/06/13 00:34:50;;;;;;;;;;;23.40;77.10;23.40;100056.00;;;;344339;28;91443;-89
2021/06/13 00:35:03;;;;;;;;;;;23.40;77.00;23.40;100067.00;;;;345971;28;83459;-89
2021/06/13 00:35:15;;;;;;;;;;;23.40;77.10;23.30;100058.00;;;;344261;28;91765;-89
2021/06/13 00:35:27;;;;;;;;;;;23.40;77.10;23.30;100064.00;;;;345991;28;83481;-89
2021/06/13 00:35:39;;;;;;;;;;;23.30;76.90;23.40;100056.00;;;;347073;28;91598;-89
2021/06/13 00:35:50;;;;;;;;;;;23.40;77.10;23.40;100060.00;;;;347574;28;83433;-90
2021/06/13 00:36:03;;;;;;;;;;;23.30;77.10;23.40;100063.00;;;;345660;28;91574;-90
2021/06/13 00:36:14;;;;;;;;;;;23.40;77.20;23.40;100059.00;;;;345486;28;82535;-90
2021/06/13 00:36:26;;;;;;;;;;;23.40;77.20;23.40;100057.00;;;;344436;28;91417;-90
2021/06/13 00:36:38;;;;;;;;;;;23.40;77.20;23.40;100059.00;;;;347644;28;82382;-90
2021/06/13 00:36:51;;;;;;;;;;;23.40;77.10;23.30;100056.00;;;;348601;27;90217;-90
2021/06/13 00:37:03;;;;;;;;;;;23.30;77.10;23.30;100063.00;;;;348981;27;82440;-89
2021/06/13 00:37:15;;;;;;;;;;;23.30;77.10;23.30;100058.00;;;;348542;27;90648;-89
2021/06/13 00:37:26;;;;;;;;;;;23.40;77.10;23.30;100061.00;;;;345616;28;83418;-90
2021/06/13 00:37:38;;;;;;;;;;;23.30;77.10;23.30;100064.00;;;;348055;27;92583;-89
2021/06/13 00:37:51;;;;;;;;;;;23.40;77.10;23.30;100060.00;;;;348967;27;82258;-90
2021/06/13 00:38:04;;;;;;;;;;;23.40;77.10;23.40;100061.00;;;;346942;28;90595;-89
2021/06/13 00:38:16;;;;;;;;;;;23.30;77.00;23.40;100060.00;;;;349001;27;82389;-89
2021/06/13 00:38:27;;;;;;;;;;;23.30;77.10;23.20;100057.00;;;;346649;28;90457;-89
2021/06/13 00:38:39;;;;;;;;;;;23.40;77.30;23.30;100056.00;;;;345858;28;83493;-90
2021/06/13 00:38:51;;;;;;;;;;;23.30;77.20;23.30;100052.00;;;;347204;28;87663;-89
2021/06/13 00:39:03;;;;;;;;;;;23.30;77.30;23.10;100063.00;;;;347591;28;83405;-89
2021/06/13 00:39:15;;;;;;;;;;;23.30;77.30;23.20;100054.00;;;;345804;28;90634;-89
2021/06/13 00:39:28;;;;;;;;;;;23.30;77.30;23.20;100062.00;;;;347483;28;83576;-89
2021/06/13 00:39:40;;;;;;;;;;;23.30;77.20;23.20;100062.00;;;;347034;28;92708;-89
2021/06/13 00:39:51;;;;;;;;;;;23.20;77.20;23.10;100056.00;;;;347523;28;83427;-90
2021/06/13 00:40:05;;;;;;;;;;;23.20;77.30;23.10;100060.00;;;;345650;28;91426;-89
2021/06/13 00:40:18;;;;;;;;;;;23.20;77.40;23.10;100056.00;;;;350394;27;82585;-89
2021/06/13 00:40:30;;;;;;;;;;;23.20;77.40;23.20;100057.00;;;;346583;28;90355;-89
2021/06/13 00:40:42;;;;;;;;;;;23.20;77.40;23.20;100053.00;;;;347540;28;83463;-89
2021/06/13 00:40:54;;;;;;;;;;;23.20;77.50;23.20;100056.00;;;;345547;28;90214;-89
2021/06/13 00:41:08;;;;;;;;;;;23.20;77.50;23.10;100058.00;;;;344917;28;82456;-90
2021/06/13 00:41:20;;;;;;;;;;;23.20;77.70;23.10;100059.00;;;;344202;28;92463;-89
2021/06/13 00:41:32;;;;;;;;;;;23.20;77.70;23.10;100056.00;;;;346064;28;83518;-89
2021/06/13 00:41:44;;;;;;;;;;;23.20;77.70;23.20;100048.00;;;;344029;28;92100;-89
2021/06/13 00:41:56;;;;;;;;;;;23.20;77.60;23.20;100050.00;;;;347507;28;83275;-90
2021/06/13 00:42:08;;;;;;;;;;;23.20;77.50;23.10;100056.00;;;;350031;27;88137;-90
2021/06/13 00:42:20;;;;;;;;;;;23.20;77.60;23.00;100051.00;;;;347578;28;83432;-89
2021/06/13 00:42:32;;;;;;;;;;;23.20;77.70;23.10;100054.00;;;;348687;27;91574;-89
2021/06/13 00:42:44;;;;;;;;;;;23.20;77.60;23.10;100054.00;;;;349037;27;83416;-89
2021/06/13 00:42:56;;;;;;;;;;;23.20;77.70;23.10;100049.00;;;;348546;27;90665;-89
2021/06/13 00:43:08;;;;;;;;;;;23.20;77.60;23.20;100056.00;;;;346242;28;82527;-89
2021/06/13 00:43:19;;;;;;;;;;;23.10;77.50;23.20;100052.00;;;;348590;27;91222;-89
2021/06/13 00:43:31;;;;;;;;;;;23.20;77.50;23.20;100052.00;;;;346417;28;83501;-89
2021/06/13 00:43:43;;;;;;;;;;;23.20;77.70;23.20;100051.00;;;;345776;28;89097;-89
2021/06/13 00:43:55;;;;;;;;;;;23.20;77.70;23.20;100054.00;;;;347428;28;82567;-89
2021/06/13 00:44:07;;;;;;;;;;;23.20;77.70;23.10;100057.00;;;;344458;28;90358;-90
2021/06/13 00:44:19;;;;;;;;;;;23.10;77.80;23.20;100055.00;;;;349060;27;83289;-89
2021/06/13 00:44:31;;;;;;;;;;;23.20;77.70;23.20;100054.00;;;;347102;28;91995;-89
2021/06/13 00:44:43;;;;;;;;;;;23.20;77.70;23.20;100049.00;;;;346250;28;83434;-90
2021/06/13 00:44:54;;;;;;;;;;;23.10;77.80;23.20;100051.00;;;;345860;28;90608;-90
2021/06/13 00:45:07;;;;;;;;;;;23.20;77.80;23.10;100046.00;;;;343271;28;83447;-89
2021/06/13 00:45:19;;;;;;;;;;;23.10;77.60;23.20;100054.00;;;;345810;28;90921;-89
2021/06/13 00:45:31;;;;;;;;;;;23.10;77.50;23.20;100055.00;;;;346308;28;83406;-89
2021/06/13 00:45:43;;;;;;;;;;;23.20;77.70;23.20;100052.00;;;;347141;28;92477;-89
2021/06/13 00:45:54;;;;;;;;;;;23.20;77.80;23.20;100051.00;;;;347670;28;83407;-89
2021/06/13 00:46:06;;;;;;;;;;;23.20;77.80;23.20;100056.00;;;;344422;28;91515;-90
2021/06/13 00:46:18;;;;;;;;;;;23.20;77.70;23.20;100054.00;;;;346332;28;83300;-89
2021/06/13 00:46:30;;;;;;;;;;;23.20;77.80;23.20;100051.00;;;;345090;28;91489;-89
2021/06/13 00:46:42;;;;;;;;;;;23.20;77.80;23.30;100054.00;;;;348148;27;83633;-90
2021/06/13 00:46:54;;;;;;;;;;;23.20;77.70;23.30;100058.00;;;;345965;28;89134;-89
2021/06/13 00:47:06;;;;;;;;;;;23.20;77.80;23.30;100051.00;;;;346394;28;82563;-90
2021/06/13 00:47:18;;;;;;;;;;;23.20;77.70;23.20;100051.00;;;;344481;28;88943;-90
2021/06/13 00:47:29;;;;;;;;;;;23.20;77.80;23.20;100054.00;;;;345275;28;83636;-89
2021/06/13 00:47:41;;;;;;;;;;;23.20;77.70;23.20;100051.00;;;;347232;28;92849;-89
2021/06/13 00:47:53;;;;;;;;;;;23.20;77.90;23.10;100046.00;;;;347657;28;82494;-89
2021/06/13 00:48:06;;;;;;;;;;;23.10;77.70;23.20;100052.00;;;;347260;28;91768;-89
2021/06/13 00:48:18;;;;;;;;;;;23.20;77.70;23.10;100053.00;;;;347266;28;83535;-89
2021/06/13 00:48:30;;;;;;;;;;;23.20;77.90;23.20;100056.00;;;;345949;28;90953;-89
2021/06/13 00:48:41;;;;;;;;;;;23.10;77.80;23.20;100049.00;;;;350449;27;83436;-89
2021/06/13 00:48:53;;;;;;;;;;;23.10;77.70;23.10;100053.00;;;;345817;28;90541;-90
2021/06/13 00:49:05;;;;;;;;;;;23.20;77.70;23.20;100051.00;;;;344981;28;82519;-90
2021/06/13 00:49:17;;;;;;;;;;;23.20;77.70;23.20;100049.00;;;;345790;28;90946;-90
2021/06/13 00:49:28;;;;;;;;;;;23.20;77.90;23.20;100056.00;;;;345299;28;83697;-90
2021/06/13 00:49:40;;;;;;;;;;;23.20;77.90;23.20;100054.00;;;;346965;28;92681;-89
2021/06/13 00:49:54;;;;;;;;;;;23.10;77.90;23.00;100049.00;;;;344896;28;82587;-89
2021/06/13 00:50:14;;;;;;;;;;;23.10;78.10;23.10;100049.00;;;;342967;28;90991;-89
2021/06/13 00:50:47;;;;;;;;;;;23.10;77.80;23.10;100052.00;;;;346168;28;82321;-89
2021/06/13 00:50:58;;;;;;;;;;;23.20;78.00;23.20;100057.00;;;;347150;28;92295;-90
2021/06/13 00:51:10;;;;;;;;;;;23.10;78.00;23.10;100054.00;;;;347510;28;83411;-90
2021/06/13 00:51:22;;;;;;;;;;;23.20;78.10;23.10;100054.00;;;;347123;28;89161;-89
2021/06/13 00:51:34;;;;;;;;;;;23.10;77.80;23.20;100046.00;;;;347666;28;82453;-89
2021/06/13 00:51:47;;;;;;;;;;;23.10;77.80;23.10;100056.00;;;;343028;28;90504;-89
2021/06/13 00:51:58;;;;;;;;;;;23.10;78.60;23.10;100057.00;;;;346146;28;83347;-90
2021/06/13 00:52:10;;;;;;;;;;;23.10;77.90;23.20;100054.00;;;;345511;28;88708;-90
2021/06/13 00:52:23;;;;;;;;;;;23.10;77.90;23.20;100049.00;;;;343411;28;83439;-89
2021/06/13 00:52:35;;;;;;;;;;;23.10;77.80;23.20;100050.00;;;;346062;28;91339;-90
2021/06/13 00:52:47;;;;;;;;;;;23.10;77.80;23.20;100054.00;;;;347349;28;82593;-89
2021/06/13 00:52:59;;;;;;;;;;;23.10;77.80;23.10;100053.00;;;;344942;28;87653;-89
2021/06/13 00:53:12;;;;;;;;;;;23.10;77.80;23.10;100056.00;;;;346193;28;82283;-88
2021/06/13 00:53:26;;;;;;;;;;;23.10;77.90;23.10;100057.00;;;;347110;28;88775;-90
2021/06/13 00:53:38;;;;;;;;;;;23.10;77.80;23.20;100056.00;;;;344841;28;82646;-90
2021/06/13 00:53:49;;;;;;;;;;;23.10;77.90;23.10;100051.00;;;;348539;27;91605;-90
2021/06/13 00:54:01;;;;;;;;;;;23.10;78.10;23.00;100056.00;;;;344700;28;83533;-89
2021/06/13 00:54:13;;;;;;;;;;;23.10;78.10;23.10;100052.00;;;;344375;28;89000;-89
2021/06/13 00:54:27;;;;;;;;;;;23.10;78.00;23.00;100050.00;;;;347562;28;83519;-90
2021/06/13 00:54:39;;;;;;;;;;;23.10;77.90;23.10;100047.00;;;;345692;28;91822;-89
2021/06/13 00:54:51;;;;;;;;;;;23.10;77.90;23.00;100055.00;;;;344767;28;83431;-89
2021/06/13 00:55:03;;;;;;;;;;;23.10;78.00;22.90;100050.00;;;;347200;28;90296;-91
2021/06/13 00:55:15;;;;;;;;;;;23.10;78.10;23.00;100052.00;;;;344723;28;83330;-90
2021/06/13 00:55:27;;;;;;;;;;;23.10;77.90;23.00;100055.00;;;;344488;28;90548;-90
2021/06/13 00:55:39;;;;;;;;;;;23.10;78.10;23.10;100053.00;;;;347304;28;83493;-89
2021/06/13 00:55:52;;;;;;;;;;;23.10;78.10;23.10;100054.00;;;;344037;28;90427;-89
2021/06/13 00:56:04;;;;;;;;;;;23.00;78.10;23.10;100053.00;;;;347484;28;83475;-89
2021/06/13 00:56:16;;;;;;;;;;;23.00;78.20;23.20;100050.00;;;;343948;28;91545;-89
2021/06/13 00:56:28;;;;;;;;;;;23.00;78.00;23.20;100052.00;;;;345003;28;83808;-90
2021/06/13 00:56:40;;;;;;;;;;;23.00;77.90;23.20;100053.00;;;;345633;28;90929;-89
2021/06/13 00:56:51;;;;;;;;;;;23.10;78.10;23.20;100050.00;;;;346220;28;82516;-90
2021/06/13 00:57:03;;;;;;;;;;;23.10;78.00;23.20;100054.00;;;;345779;28;91527;-89
2021/06/13 00:57:15;;;;;;;;;;;23.10;78.00;23.10;100048.00;;;;344668;28;82613;-90
2021/06/13 00:57:27;;;;;;;;;;;23.10;78.20;23.00;100051.00;;;;348424;27;87874;-89
2021/06/13 00:57:39;;;;;;;;;;;23.00;78.20;23.00;100050.00;;;;347578;28;82507;-89
2021/06/13 00:57:51;;;;;;;;;;;23.00;78.20;23.00;100047.00;;;;347131;28;91393;-90
2021/06/13 00:58:03;;;;;;;;;;;23.00;78.20;23.10;100048.00;;;;347571;28;82414;-89
2021/06/13 00:58:15;;;;;;;;;;;23.00;78.20;23.10;100049.00;;;;345645;28;92713;-90
2021/06/13 00:58:27;;;;;;;;;;;23.00;78.20;23.10;100050.00;;;;348817;27;83938;-89
2021/06/13 00:58:39;;;;;;;;;;;23.10;78.20;23.10;100047.00;;;;345265;28;94553;-90
2021/06/13 00:58:53;;;;;;;;;;;23.10;78.10;23.10;100051.00;;;;347378;28;83449;-89
2021/06/13 00:59:05;;;;;;;;;;;23.10;78.20;23.10;100049.00;;;;345710;28;90355;-90
2021/06/13 00:59:17;;;;;;;;;;;23.10;78.20;23.00;100054.00;;;;346074;28;83479;-90
2021/06/13 00:59:29;;;;;;;;;;;23.10;78.20;23.10;100048.00;;;;346098;28;90657;-91
2021/06/13 00:59:41;;;;;;;;;;;23.00;78.10;23.10;100049.00;;;;347597;28;83412;-89
2021/06/13 00:59:52;;;;;;;;;;;23.00;78.10;23.10;100049.00;;;;344341;28;91677;-89